createdAt,value
2022-08-09T00:00:00.491Z,69.10
2022-08-09T00:00:58.875Z,70.32
2022-08-09T00:01:58.922Z,69.00
2022-08-09T00:02:58.847Z,69.24
2022-08-09T00:04:05.412Z,70.25
2022-08-09T00:05:03.679Z,70.65
2022-08-09T00:06:18.097Z,70.45
2022-08-09T00:06:59.810Z,70.35
2022-08-09T00:07:59.955Z,69.24
2022-08-09T00:08:58.805Z,70.56
2022-08-09T00:09:58.803Z,70.25
2022-08-09T00:10:58.782Z,71.20
2022-08-09T00:12:03.420Z,70.79
2022-08-09T00:12:58.764Z,71.73
2022-08-09T00:13:58.762Z,71.53
2022-08-09T00:15:00.421Z,72.85
2022-08-09T00:16:02.425Z,72.14
2022-08-09T00:16:58.753Z,70.48
2022-08-09T00:18:09.413Z,72.55
2022-08-09T00:18:59.724Z,72.25
2022-08-09T00:19:58.734Z,72.45
2022-08-09T00:20:58.713Z,72.34
2022-08-09T00:21:58.709Z,72.34
2022-08-09T00:22:58.705Z,72.65
2022-08-09T00:23:59.919Z,73.06
2022-08-09T00:24:58.701Z,73.06
2022-08-09T00:25:58.683Z,73.50
2022-08-09T00:26:59.920Z,73.19
2022-08-09T00:27:58.669Z,72.78
2022-08-09T00:28:58.656Z,73.09
2022-08-09T00:30:23.638Z,72.17
2022-08-09T00:30:59.642Z,73.39
2022-08-09T00:32:01.101Z,73.19
2022-08-09T00:32:58.621Z,72.28
2022-08-09T00:33:58.630Z,73.80
2022-08-09T00:34:58.815Z,74.31
2022-08-09T00:35:58.608Z,73.43
2022-08-09T00:36:58.594Z,73.63
2022-08-09T00:37:58.593Z,73.94
2022-08-09T00:38:58.614Z,74.44
2022-08-09T00:40:13.968Z,74.18
2022-08-09T00:40:59.659Z,74.34
2022-08-09T00:44:09.936Z,75.80
2022-08-09T00:44:13.718Z,75.36
2022-08-09T00:44:15.218Z,75.26
2022-08-09T00:44:59.557Z,73.26
2022-08-09T00:45:58.533Z,74.99
2022-08-09T00:47:04.968Z,75.29
2022-08-09T00:47:59.522Z,75.19
2022-08-09T00:48:58.510Z,75.80
2022-08-09T00:49:58.519Z,75.60
2022-08-09T00:50:58.512Z,75.73
2022-08-09T00:51:58.495Z,75.63
2022-08-09T00:52:58.483Z,76.55
2022-08-09T00:53:58.476Z,75.43
2022-08-09T00:54:58.479Z,75.84
2022-08-09T00:56:05.635Z,75.53
2022-08-09T00:56:59.455Z,75.73
2022-08-09T00:57:59.222Z,75.63
2022-08-09T00:58:58.444Z,75.29
2022-08-09T00:59:58.458Z,76.10
2022-08-09T01:00:59.053Z,75.49
2022-08-09T01:01:58.441Z,75.29
2022-08-09T01:02:58.417Z,73.06
2022-08-09T01:03:58.412Z,75.05
2022-08-09T01:04:58.462Z,74.68
2022-08-09T01:05:58.401Z,74.95
2022-08-09T01:06:59.392Z,74.68
2022-08-09T01:08:00.538Z,75.29
2022-08-09T01:08:58.373Z,75.60
2022-08-09T01:09:58.383Z,76.10
2022-08-09T01:10:58.364Z,75.63
2022-08-09T01:11:58.358Z,76.25
2022-08-09T01:12:58.346Z,76.79
2022-08-09T01:14:00.326Z,77.40
2022-08-09T01:14:58.346Z,76.59
2022-08-09T01:15:58.325Z,76.79
2022-08-09T01:16:58.311Z,76.89
2022-08-09T01:17:58.312Z,75.94
2022-08-09T01:19:04.246Z,73.91
2022-08-09T01:20:02.660Z,75.84
2022-08-09T01:20:58.287Z,73.60
2022-08-09T01:21:58.282Z,75.23
2022-08-09T01:22:58.277Z,75.33
2022-08-09T01:24:01.780Z,73.36
2022-08-09T01:24:58.275Z,73.26
2022-08-09T01:25:58.245Z,73.46
2022-08-09T01:26:58.250Z,74.28
2022-08-09T01:27:58.235Z,72.21
2022-08-09T01:28:58.231Z,73.22
2022-08-09T01:29:58.241Z,74.24
2022-08-09T01:30:59.039Z,73.33
2022-08-09T01:32:31.113Z,72.92
2022-08-09T01:32:59.272Z,74.24
2022-08-09T01:33:58.188Z,74.04
2022-08-09T01:34:58.202Z,73.83
2022-08-09T01:35:59.111Z,74.18
2022-08-09T01:36:58.172Z,75.19
2022-08-09T01:38:09.346Z,75.29
2022-08-09T01:38:59.166Z,75.49
2022-08-09T01:39:58.164Z,74.38
2022-08-09T01:41:05.013Z,75.19
2022-08-09T01:42:00.560Z,75.40
2022-08-09T01:42:58.135Z,76.10
2022-08-09T01:43:58.124Z,75.84
2022-08-09T01:44:58.130Z,76.14
2022-08-09T01:45:58.302Z,76.07
2022-08-09T01:46:58.117Z,77.20
2022-08-09T01:47:58.086Z,76.79
2022-08-09T01:49:00.273Z,76.89
2022-08-09T01:49:59.102Z,77.09
2022-08-09T01:50:58.074Z,77.33
2022-08-09T01:51:58.064Z,77.40
2022-08-09T01:52:59.062Z,77.60
2022-08-09T01:53:58.280Z,77.91
2022-08-09T01:54:58.045Z,76.79
2022-08-09T01:55:58.060Z,76.18
2022-08-09T01:56:58.033Z,76.89
2022-08-09T01:57:58.073Z,76.28
2022-08-09T01:58:58.016Z,76.14
2022-08-09T02:00:00.068Z,76.07
2022-08-09T02:00:59.050Z,76.04
2022-08-09T02:02:01.026Z,76.75
2022-08-09T02:02:57.988Z,77.70
2022-08-09T02:03:57.972Z,77.29
2022-08-09T02:05:01.415Z,76.99
2022-08-09T02:06:04.150Z,78.11
2022-08-09T02:06:59.140Z,77.13
2022-08-09T02:08:41.403Z,77.50
2022-08-09T02:08:59.867Z,77.50
2022-08-09T02:09:59.444Z,78.76
2022-08-09T02:10:59.816Z,78.25
2022-08-09T02:11:57.926Z,77.94
2022-08-09T02:12:57.912Z,78.05
2022-08-09T02:14:07.715Z,78.25
2022-08-09T02:14:58.901Z,79.06
2022-08-09T02:15:57.904Z,78.45
2022-08-09T02:17:15.420Z,79.41
2022-08-09T02:18:09.709Z,77.78
2022-08-09T02:18:58.872Z,80.02
2022-08-09T02:19:57.864Z,79.41
2022-08-09T02:20:57.873Z,77.98
2022-08-09T02:21:57.845Z,79.20
2022-08-09T02:22:57.844Z,80.42
2022-08-09T02:23:57.827Z,79.50
2022-08-09T02:24:57.825Z,80.83
2022-08-09T02:25:57.838Z,80.16
2022-08-09T02:26:58.716Z,80.05
2022-08-09T02:28:03.641Z,80.56
2022-08-09T02:28:59.535Z,80.56
2022-08-09T02:29:57.789Z,79.24
2022-08-09T02:30:57.844Z,78.22
2022-08-09T02:31:57.778Z,77.81
2022-08-09T02:32:57.775Z,79.10
2022-08-09T02:34:06.596Z,78.02
2022-08-09T02:34:58.759Z,76.96
2022-08-09T02:36:03.223Z,78.08
2022-08-09T02:36:58.741Z,76.11
2022-08-09T02:37:57.738Z,78.86
2022-08-09T02:38:57.734Z,77.44
2022-08-09T02:40:01.802Z,76.01
2022-08-09T02:40:58.731Z,78.35
2022-08-09T02:41:57.709Z,77.53
2022-08-09T02:43:00.012Z,77.53
2022-08-09T02:43:57.689Z,77.91
2022-08-09T02:44:57.686Z,75.77
2022-08-09T02:45:57.678Z,76.38
2022-08-09T02:46:57.682Z,77.81
2022-08-09T02:47:59.581Z,78.55
2022-08-09T02:48:57.665Z,78.15
2022-08-09T02:50:01.461Z,77.53
2022-08-09T02:50:57.642Z,76.92
2022-08-09T02:51:57.647Z,76.72
2022-08-09T02:52:57.631Z,76.21
2022-08-09T02:54:01.475Z,77.44
2022-08-09T02:54:58.615Z,77.09
2022-08-09T02:55:58.824Z,77.74
2022-08-09T02:56:57.608Z,77.03
2022-08-09T02:58:32.589Z,76.21
2022-08-09T02:58:58.599Z,77.81
2022-08-09T03:00:11.483Z,78.66
2022-08-09T03:00:59.105Z,76.01
2022-08-09T03:02:06.246Z,77.37
2022-08-09T03:03:00.643Z,77.26
2022-08-09T03:04:18.396Z,76.21
2022-08-09T03:04:58.539Z,75.84
2022-08-09T03:05:57.534Z,78.45
2022-08-09T03:06:57.537Z,79.20
2022-08-09T03:07:57.510Z,77.67
2022-08-09T03:08:57.525Z,78.28
2022-08-09T03:10:00.508Z,80.11
2022-08-09T03:10:57.495Z,79.41
2022-08-09T03:12:09.836Z,77.57
2022-08-09T03:12:58.489Z,76.86
2022-08-09T03:13:59.436Z,77.98
2022-08-09T03:14:57.470Z,77.98
2022-08-09T03:16:06.090Z,77.98
2022-08-09T03:16:58.471Z,77.57
2022-08-09T03:17:58.846Z,77.47
2022-08-09T03:18:57.441Z,78.08
2022-08-09T03:20:02.835Z,78.19
2022-08-09T03:20:58.429Z,79.20
2022-08-09T03:21:57.431Z,78.19
2022-08-09T03:23:00.297Z,79.24
2022-08-09T03:24:04.472Z,79.27
2022-08-09T03:25:20.898Z,80.60
2022-08-09T03:26:04.983Z,80.70
2022-08-09T03:26:58.396Z,81.56
2022-08-09T03:27:57.470Z,80.94
2022-08-09T03:28:57.374Z,80.09
2022-08-09T03:30:01.248Z,81.21
2022-08-09T03:30:57.359Z,82.23
2022-08-09T03:32:00.310Z,79.27
2022-08-09T03:32:57.345Z,81.11
2022-08-09T03:33:58.101Z,81.11
2022-08-09T03:34:57.336Z,80.91
2022-08-09T03:36:13.116Z,80.66
2022-08-09T03:36:59.746Z,79.44
2022-08-09T03:37:57.310Z,79.34
2022-08-09T03:38:57.298Z,81.17
2022-08-09T03:39:57.333Z,80.77
2022-08-09T03:40:57.282Z,80.97
2022-08-09T03:42:06.481Z,80.97
2022-08-09T03:42:58.269Z,81.21
2022-08-09T03:44:08.300Z,80.56
2022-08-09T03:44:58.256Z,80.97
2022-08-09T03:46:04.813Z,80.46
2022-08-09T03:46:58.519Z,78.53
2022-08-09T03:47:57.228Z,78.32
2022-08-09T03:48:57.225Z,79.95
2022-08-09T03:49:58.300Z,78.42
2022-08-09T03:50:57.213Z,78.39
2022-08-09T03:52:00.168Z,78.80
2022-08-09T03:52:58.203Z,79.20
2022-08-09T03:53:57.186Z,77.26
2022-08-09T03:54:57.189Z,79.00
2022-08-09T03:55:57.187Z,80.87
2022-08-09T03:56:58.012Z,79.20
2022-08-09T03:58:06.646Z,80.36
2022-08-09T03:58:58.163Z,80.05
2022-08-09T04:00:00.425Z,78.63
2022-08-09T04:00:57.198Z,80.11
2022-08-09T04:01:59.232Z,79.34
2022-08-09T04:02:57.328Z,80.46
2022-08-09T04:04:01.079Z,79.24
2022-08-09T04:04:57.116Z,78.93
2022-08-09T04:05:57.102Z,78.12
2022-08-09T04:06:57.113Z,78.19
2022-08-09T04:07:57.777Z,77.87
2022-08-09T04:08:57.081Z,78.73
2022-08-09T04:09:57.075Z,79.41
2022-08-09T04:11:01.759Z,79.71
2022-08-09T04:11:57.072Z,78.89
2022-08-09T04:12:57.774Z,78.69
2022-08-09T04:14:54.140Z,79.00
2022-08-09T04:15:02.010Z,80.73
2022-08-09T04:16:20.257Z,79.10
2022-08-09T04:16:58.054Z,80.16
2022-08-09T04:17:57.582Z,76.69
2022-08-09T04:18:57.005Z,80.87
2022-08-09T04:19:57.018Z,80.80
2022-08-09T04:20:56.999Z,81.11
2022-08-09T04:21:56.981Z,80.09
2022-08-09T04:22:56.989Z,81.31
2022-08-09T04:23:57.831Z,81.86
2022-08-09T04:24:56.966Z,82.41
2022-08-09T04:25:56.950Z,82.82
2022-08-09T04:26:56.947Z,81.90
2022-08-09T04:28:00.051Z,82.00
2022-08-09T04:28:58.336Z,81.76
2022-08-09T04:29:56.929Z,82.07
2022-08-09T04:30:56.957Z,81.35
2022-08-09T04:31:57.817Z,81.86
2022-08-09T04:32:56.932Z,82.71
2022-08-09T04:33:59.319Z,83.12
2022-08-09T04:34:57.518Z,82.82
2022-08-09T04:35:56.874Z,83.33
2022-08-09T04:36:56.874Z,83.06
2022-08-09T04:37:56.871Z,83.37
2022-08-09T04:38:56.858Z,84.25
2022-08-09T04:39:56.896Z,84.59
2022-08-09T04:40:57.263Z,84.69
2022-08-09T04:41:56.837Z,84.08
2022-08-09T04:42:57.054Z,82.96
2022-08-09T04:44:07.349Z,83.33
2022-08-09T04:44:57.812Z,84.34
2022-08-09T04:45:56.802Z,83.84
2022-08-09T04:47:00.163Z,83.23
2022-08-09T04:48:00.121Z,84.25
2022-08-09T04:48:58.365Z,83.73
2022-08-09T04:49:56.778Z,84.25
2022-08-09T04:50:56.774Z,83.02
2022-08-09T04:51:56.763Z,83.12
2022-08-09T04:52:56.782Z,84.14
2022-08-09T04:53:58.586Z,82.21
2022-08-09T04:54:56.837Z,83.33
2022-08-09T04:55:59.102Z,84.20
2022-08-09T04:56:56.729Z,81.96
2022-08-09T04:58:01.609Z,82.74
2022-08-09T04:58:57.711Z,81.41
2022-08-09T04:59:56.699Z,83.65
2022-08-09T05:00:56.702Z,80.91
2022-08-09T05:01:56.689Z,80.91
2022-08-09T05:02:56.701Z,81.38
2022-08-09T05:03:58.592Z,81.07
2022-08-09T05:04:56.675Z,80.77
2022-08-09T05:06:06.635Z,79.24
2022-08-09T05:06:57.667Z,80.52
2022-08-09T05:07:56.667Z,80.93
2022-08-09T05:09:00.462Z,79.00
2022-08-09T05:09:56.659Z,79.30
2022-08-09T05:10:56.630Z,79.61
2022-08-09T05:11:56.620Z,81.44
2022-08-09T05:12:56.635Z,81.95
2022-08-09T05:13:56.606Z,81.48
2022-08-09T05:14:56.602Z,80.02
2022-08-09T05:15:57.154Z,80.42
2022-08-09T05:16:59.061Z,81.13
2022-08-09T05:18:38.601Z,78.89
2022-08-09T05:18:59.529Z,81.24
2022-08-09T05:19:58.130Z,80.73
2022-08-09T05:20:56.562Z,79.20
2022-08-09T05:21:56.613Z,80.73
2022-08-09T05:23:55.222Z,80.08
2022-08-09T05:24:00.620Z,80.69
2022-08-09T05:24:57.297Z,79.37
2022-08-09T05:25:56.835Z,79.37
2022-08-09T05:26:56.512Z,79.43
2022-08-09T05:27:56.546Z,80.99
2022-08-09T05:28:56.501Z,80.29
2022-08-09T05:29:56.489Z,82.52
2022-08-09T05:30:56.486Z,81.65
2022-08-09T05:31:58.476Z,80.73
2022-08-09T05:32:56.485Z,81.10
2022-08-09T05:33:56.468Z,80.79
2022-08-09T05:34:56.456Z,81.81
2022-08-09T05:35:57.063Z,80.79
2022-08-09T05:36:56.472Z,79.77
2022-08-09T05:37:56.443Z,79.16
2022-08-09T05:38:56.426Z,78.62
2022-08-09T05:39:56.484Z,80.21
2022-08-09T05:40:56.413Z,78.72
2022-08-09T05:41:56.406Z,78.11
2022-08-09T05:42:56.403Z,79.02
2022-08-09T05:43:56.438Z,78.58
2022-08-09T05:44:56.385Z,77.87
2022-08-09T05:45:57.073Z,78.28
2022-08-09T05:46:56.374Z,77.83
2022-08-09T05:48:01.348Z,78.55
2022-08-09T05:48:58.978Z,78.14
2022-08-09T05:50:25.101Z,78.14
2022-08-09T05:51:16.720Z,78.55
2022-08-09T05:51:57.340Z,78.00
2022-08-09T05:52:56.326Z,78.20
2022-08-09T05:53:57.574Z,78.10
2022-08-09T05:54:56.312Z,78.00
2022-08-09T05:55:57.312Z,77.49
2022-08-09T05:56:56.779Z,77.66
2022-08-09T05:57:58.264Z,74.62
2022-08-09T05:58:58.335Z,74.92
2022-08-09T05:59:56.280Z,75.70
2022-08-09T06:00:56.268Z,76.00
2022-08-09T06:01:58.894Z,74.65
2022-08-09T06:02:56.770Z,74.04
2022-08-09T06:03:58.753Z,73.53
2022-08-09T06:04:56.236Z,72.52
2022-08-09T06:06:04.423Z,71.67
2022-08-09T06:06:57.230Z,72.48
2022-08-09T06:08:08.097Z,72.78
2022-08-09T06:08:57.222Z,74.17
2022-08-09T06:10:02.629Z,71.73
2022-08-09T06:10:58.080Z,73.86
2022-08-09T06:11:57.769Z,72.21
2022-08-09T06:13:02.816Z,72.41
2022-08-09T06:13:57.204Z,73.22
2022-08-09T06:15:00.680Z,72.28
2022-08-09T06:15:56.216Z,71.47
2022-08-09T06:16:57.264Z,72.75
2022-08-09T06:17:56.148Z,72.44
2022-08-09T06:18:56.155Z,72.38
2022-08-09T06:19:56.139Z,70.42
2022-08-09T06:20:57.691Z,70.18
2022-08-09T06:21:58.684Z,71.80
2022-08-09T06:22:56.106Z,71.20
2022-08-09T06:24:01.037Z,71.70
2022-08-09T06:24:57.096Z,70.25
2022-08-09T06:25:56.133Z,67.93
2022-08-09T06:26:56.130Z,69.04
2022-08-09T06:27:56.073Z,69.01
2022-08-09T06:29:01.018Z,70.53
2022-08-09T06:30:04.468Z,70.32
2022-08-09T06:30:57.080Z,68.57
2022-08-09T06:32:08.501Z,69.68
2022-08-09T06:33:13.144Z,68.77
2022-08-09T06:33:57.073Z,68.57
2022-08-09T06:34:56.033Z,69.75
2022-08-09T06:35:58.261Z,69.04
2022-08-09T06:36:59.016Z,67.50
2022-08-09T06:38:05.792Z,68.51
2022-08-09T06:38:57.139Z,66.49
2022-08-09T06:40:00.153Z,67.67
2022-08-09T06:40:57.027Z,67.77
2022-08-09T06:42:09.381Z,66.25
2022-08-09T06:42:57.008Z,64.72
2022-08-09T06:43:55.976Z,67.13
2022-08-09T06:44:57.371Z,68.31
2022-08-09T06:46:05.349Z,67.03
2022-08-09T06:46:56.941Z,67.71
2022-08-09T06:47:57.929Z,66.60
2022-08-09T06:49:00.050Z,66.90
2022-08-09T06:50:13.450Z,65.79
2022-08-09T06:50:56.908Z,65.26
2022-08-09T06:51:55.912Z,66.56
2022-08-09T06:52:55.893Z,66.36
2022-08-09T06:53:55.888Z,66.97
2022-08-09T06:54:55.892Z,68.35
2022-08-09T06:55:55.872Z,67.03
2022-08-09T06:56:55.861Z,66.10
2022-08-09T06:58:01.388Z,66.03
2022-08-09T07:00:54.522Z,64.52
2022-08-09T07:00:54.930Z,65.80
2022-08-09T07:00:58.512Z,66.20
2022-08-09T07:02:03.559Z,65.70
2022-08-09T07:02:55.824Z,64.89
2022-08-09T07:04:03.686Z,64.56
2022-08-09T07:04:56.822Z,63.73
2022-08-09T07:06:04.389Z,63.82
2022-08-09T07:06:59.971Z,63.19
2022-08-09T07:08:00.331Z,62.89
2022-08-09T07:08:56.779Z,61.55
2022-08-09T07:10:10.417Z,60.52
2022-08-09T07:10:56.759Z,58.59
2022-08-09T07:11:55.754Z,58.63
2022-08-09T07:12:57.471Z,58.81
2022-08-09T07:14:05.617Z,56.20
2022-08-09T07:14:56.779Z,56.27
2022-08-09T07:16:44.064Z,55.47
2022-08-09T07:16:58.326Z,55.05
2022-08-09T07:18:01.905Z,55.05
2022-08-09T07:18:56.734Z,55.12
2022-08-09T07:19:55.821Z,55.09
2022-08-09T07:20:55.680Z,54.49
2022-08-09T07:21:59.014Z,55.19
2022-08-09T07:22:55.860Z,54.29
2022-08-09T07:23:57.915Z,53.89
2022-08-09T07:24:55.680Z,54.57
2022-08-09T07:26:02.318Z,54.24
2022-08-09T07:26:55.635Z,52.37
2022-08-09T07:27:55.748Z,49.87
2022-08-09T07:29:09.140Z,49.78
2022-08-09T07:29:56.760Z,45.71
2022-08-09T07:30:55.627Z,43.46
2022-08-09T07:31:55.597Z,41.73
2022-08-09T07:32:55.582Z,39.79
2022-08-09T07:33:56.031Z,37.94
2022-08-09T07:34:55.590Z,35.60
2022-08-09T07:35:55.566Z,36.19
2022-08-09T07:36:55.557Z,35.28
2022-08-09T07:37:59.340Z,34.74
2022-08-09T07:39:00.744Z,33.94
2022-08-09T07:39:56.581Z,33.07
2022-08-09T07:41:11.718Z,34.97
2022-08-09T07:41:56.526Z,35.58
2022-08-09T07:42:55.971Z,36.21
2022-08-09T07:43:56.278Z,37.03
2022-08-09T07:44:59.690Z,37.28
2022-08-09T07:45:56.499Z,39.61
2022-08-09T07:46:56.485Z,39.34
2022-08-09T07:48:01.598Z,41.85
2022-08-09T07:49:00.224Z,41.58
2022-08-09T07:50:07.696Z,41.44
2022-08-09T07:51:08.992Z,44.26
2022-08-09T07:52:05.358Z,45.37
2022-08-09T07:53:00.924Z,45.57
2022-08-09T07:54:06.938Z,43.16
2022-08-09T07:54:56.442Z,44.74
2022-08-09T07:56:03.466Z,42.61
2022-08-09T07:56:56.441Z,41.28
2022-08-09T07:57:55.415Z,41.33
2022-08-09T07:58:55.410Z,39.87
2022-08-09T08:00:03.091Z,38.10
2022-08-09T08:01:06.091Z,34.79
2022-08-09T08:01:56.432Z,34.43
2022-08-09T08:02:55.394Z,32.61
2022-08-09T08:03:55.370Z,31.29
2022-08-09T08:04:55.375Z,29.10
2022-08-09T08:05:58.039Z,30.60
2022-08-09T08:06:55.858Z,29.91
2022-08-09T08:08:44.156Z,30.49
2022-08-09T08:09:00.939Z,30.47
2022-08-09T08:10:08.690Z,29.87
2022-08-09T08:11:15.188Z,30.07
2022-08-09T08:12:09.419Z,29.88
2022-08-09T08:12:56.579Z,30.96
2022-08-09T08:13:56.121Z,29.62
2022-08-09T08:14:55.304Z,30.32
2022-08-09T08:15:55.278Z,31.63
2022-08-09T08:17:07.381Z,33.05
2022-08-09T08:17:58.580Z,33.75
2022-08-09T08:18:55.256Z,34.56
2022-08-09T08:19:55.265Z,35.30
2022-08-09T08:20:55.235Z,37.88
2022-08-09T08:21:55.225Z,36.90
2022-08-09T08:22:55.661Z,35.73
2022-08-09T08:23:55.884Z,37.11
2022-08-09T08:24:55.230Z,35.53
2022-08-09T08:26:08.087Z,37.21
2022-08-09T08:26:56.850Z,37.21
2022-08-09T08:27:55.185Z,37.24
2022-08-09T08:28:55.182Z,38.75
2022-08-09T08:29:55.283Z,39.36
2022-08-09T08:30:55.364Z,38.55
2022-08-09T08:32:03.525Z,38.15
2022-08-09T08:32:56.149Z,38.04
2022-08-09T08:33:56.165Z,37.54
2022-08-09T08:34:55.345Z,38.02
2022-08-09T08:35:59.252Z,37.01
2022-08-09T08:36:55.124Z,36.98
2022-08-09T08:38:04.446Z,33.79
2022-08-09T08:38:56.245Z,35.43
2022-08-09T08:39:55.138Z,33.05
2022-08-09T08:40:55.105Z,32.74
2022-08-09T08:41:55.085Z,34.41
2022-08-09T08:42:55.077Z,31.22
2022-08-09T08:43:58.172Z,31.38
2022-08-09T08:44:55.077Z,29.75
2022-08-09T08:46:03.785Z,27.15
2022-08-09T08:47:02.080Z,28.65
2022-08-09T08:47:59.054Z,24.98
2022-08-09T08:48:55.032Z,24.93
2022-08-09T08:49:55.049Z,22.95
2022-08-09T08:50:55.075Z,21.27
2022-08-09T08:52:00.286Z,21.14
2022-08-09T08:52:58.759Z,20.53
2022-08-09T08:54:02.894Z,21.09
2022-08-09T08:54:56.011Z,19.64
2022-08-09T08:55:54.991Z,19.64
2022-08-09T08:56:54.979Z,19.61
2022-08-09T08:57:57.453Z,18.73
2022-08-09T08:58:54.968Z,18.02
2022-08-09T08:59:57.361Z,17.35
2022-08-09T09:00:56.825Z,16.66
2022-08-09T09:01:56.945Z,17.36
2022-08-09T09:02:55.787Z,18.60
2022-08-09T09:03:54.980Z,18.32
2022-08-09T09:04:54.944Z,17.55
2022-08-09T09:06:00.732Z,18.91
2022-08-09T09:06:55.913Z,18.36
2022-08-09T09:07:54.915Z,19.04
2022-08-09T09:08:59.720Z,19.57
2022-08-09T09:10:02.067Z,20.68
2022-08-09T09:10:55.910Z,18.74
2022-08-09T09:11:54.888Z,18.42
2022-08-09T09:12:55.581Z,16.66
2022-08-09T09:13:58.321Z,17.40
2022-08-09T09:14:54.991Z,15.66
2022-08-09T09:15:54.914Z,16.31
2022-08-09T09:16:54.861Z,15.36
2022-08-09T09:17:54.847Z,16.03
2022-08-09T09:19:10.733Z,17.08
2022-08-09T09:19:55.837Z,15.56
2022-08-09T09:20:54.838Z,15.57
2022-08-09T09:21:54.822Z,16.72
2022-08-09T09:22:55.539Z,16.32
2022-08-09T09:23:57.516Z,15.73
2022-08-09T09:25:00.868Z,15.47
2022-08-09T09:26:03.007Z,16.28
2022-08-09T09:26:55.838Z,17.57
2022-08-09T09:28:05.530Z,18.08
2022-08-09T09:29:04.098Z,17.41
2022-08-09T09:30:12.133Z,17.10
2022-08-09T09:30:55.776Z,17.27
2022-08-09T09:32:03.828Z,17.09
2022-08-09T09:32:55.755Z,17.02
2022-08-09T09:33:56.875Z,18.55
2022-08-09T09:34:54.793Z,17.49
2022-08-09T09:36:01.428Z,17.36
2022-08-09T09:36:55.728Z,16.00
2022-08-09T09:37:54.737Z,15.50
2022-08-09T09:38:54.721Z,15.39
2022-08-09T09:39:57.902Z,16.16
2022-08-09T09:40:54.730Z,16.06
2022-08-09T09:41:54.712Z,16.67
2022-08-09T09:42:54.696Z,15.62
2022-08-09T09:44:12.148Z,16.74
2022-08-09T09:44:55.701Z,16.13
2022-08-09T09:46:38.852Z,13.81
2022-08-09T09:46:55.673Z,14.65
2022-08-09T09:47:58.384Z,14.28
2022-08-09T09:48:54.663Z,12.57
2022-08-09T09:50:13.671Z,14.13
2022-08-09T09:50:55.670Z,13.83
2022-08-09T09:51:54.647Z,13.65
2022-08-09T09:52:56.114Z,14.40
2022-08-09T09:54:01.000Z,13.34
2022-08-09T09:54:55.942Z,12.85
2022-08-09T09:56:03.912Z,13.25
2022-08-09T09:58:02.503Z,14.78
2022-08-09T09:58:03.355Z,14.12
2022-08-09T09:58:55.616Z,12.86
2022-08-09T09:59:54.602Z,13.51
2022-08-09T10:00:58.715Z,14.44
2022-08-09T10:01:55.598Z,11.86
2022-08-09T10:02:54.673Z,12.53
2022-08-09T10:03:57.565Z,12.71
2022-08-09T10:04:54.592Z,11.74
2022-08-09T10:06:03.936Z,12.23
2022-08-09T10:06:55.576Z,12.88
2022-08-09T10:08:11.063Z,12.40
2022-08-09T10:08:57.755Z,11.07
2022-08-09T10:09:55.325Z,12.29
2022-08-09T10:10:54.676Z,11.82
2022-08-09T10:12:11.779Z,11.71
2022-08-09T10:12:55.976Z,10.95
2022-08-09T10:13:54.533Z,10.85
2022-08-09T10:14:54.536Z,11.13
2022-08-09T10:16:54.806Z,10.29
2022-08-09T10:17:11.312Z,10.19
2022-08-09T10:17:56.756Z,11.05
2022-08-09T10:18:54.685Z,10.38
2022-08-09T10:19:57.143Z,11.04
2022-08-09T10:20:54.530Z,11.24
2022-08-09T10:21:54.493Z,11.82
2022-08-09T10:22:59.956Z,11.83
2022-08-09T10:23:55.504Z,12.10
2022-08-09T10:24:54.489Z,11.53
2022-08-09T10:26:08.093Z,11.05
2022-08-09T10:26:55.478Z,11.33
2022-08-09T10:27:57.086Z,10.30
2022-08-09T10:29:22.483Z,11.24
2022-08-09T10:30:26.513Z,11.72
2022-08-09T10:32:55.916Z,10.75
2022-08-09T10:34:11.161Z,10.58
2022-08-09T10:34:55.445Z,12.10
2022-08-09T10:35:54.450Z,10.49
2022-08-09T10:36:54.540Z,10.58
2022-08-09T10:37:54.433Z,11.90
2022-08-09T10:38:59.746Z,12.08
2022-08-09T10:39:55.488Z,10.65
2022-08-09T10:40:54.496Z,10.28
2022-08-09T10:41:54.416Z,10.39
2022-08-09T10:42:54.411Z,11.45
2022-08-09T10:44:01.319Z,10.79
2022-08-09T10:44:54.400Z,11.16
2022-08-09T10:46:00.082Z,11.73
2022-08-09T10:46:57.655Z,11.15
2022-08-09T10:48:26.217Z,10.67
2022-08-09T10:48:55.392Z,10.29
2022-08-09T10:49:54.645Z,10.29
2022-08-09T10:50:54.392Z,10.38
2022-08-09T10:51:54.377Z,10.47
2022-08-09T10:52:54.378Z,10.55
2022-08-09T10:53:55.074Z,9.99
2022-08-09T10:54:54.375Z,9.52
2022-08-09T10:55:58.419Z,10.36
2022-08-09T10:56:55.400Z,10.36
2022-08-09T10:57:55.945Z,10.06
2022-08-09T10:58:55.358Z,9.49
2022-08-09T10:59:57.703Z,9.68
2022-08-09T11:03:02.233Z,9.76
2022-08-09T11:03:13.130Z,9.86
2022-08-09T11:03:15.836Z,9.11
2022-08-09T11:03:59.909Z,9.95
2022-08-09T11:04:55.813Z,10.18
2022-08-09T11:06:00.560Z,10.30
2022-08-09T11:06:55.323Z,10.30
2022-08-09T11:07:56.908Z,11.17
2022-08-09T11:08:54.920Z,11.84
2022-08-09T11:09:56.397Z,10.97
2022-08-09T11:10:56.413Z,10.30
2022-08-09T11:11:55.409Z,10.30
2022-08-09T11:12:54.343Z,10.02
2022-08-09T11:13:55.034Z,10.78
2022-08-09T11:14:54.295Z,10.40
2022-08-09T11:16:04.656Z,11.26
2022-08-09T11:16:55.290Z,11.74
2022-08-09T11:18:02.644Z,11.86
2022-08-09T11:18:55.289Z,11.19
2022-08-09T11:20:20.058Z,10.71
2022-08-09T11:20:55.294Z,10.22
2022-08-09T11:21:57.304Z,11.07
2022-08-09T11:22:56.828Z,10.32
2022-08-09T11:23:54.268Z,11.00
2022-08-09T11:24:54.285Z,12.32
2022-08-09T11:25:54.840Z,11.44
2022-08-09T11:26:54.980Z,9.82
2022-08-09T11:28:03.973Z,11.04
2022-08-09T11:28:56.980Z,10.44
2022-08-09T11:30:06.413Z,11.28
2022-08-09T11:30:55.289Z,10.97
2022-08-09T11:31:54.912Z,8.81
2022-08-09T11:32:54.279Z,9.39
2022-08-09T11:33:54.229Z,11.63
2022-08-09T11:34:54.231Z,10.39
2022-08-09T11:35:54.246Z,8.52
2022-08-09T11:36:54.221Z,8.62
2022-08-09T11:37:54.216Z,9.11
